Time;durP1;ratioP1;P1;durP2;ratioP2;P2;SDS_P1;SDS_P2;PMS_P1;PMS_P2;Temp;Humidity;BMP_temperature;BMP_pressure;BME280_temperature;BME280_humidity;BME280_pressure;Samples;Min_cycle;Max_cycle;Signal;HPM_P1;HPM_P2
2021/07/07 00:00:36;;;;;;;3.73;2.77;;;;;;;24.87;87.80;97870.28;5069077;28;20582;-71
2021/07/07 00:03:03;;;;;;;4.00;2.47;;;;;;;24.48;88.66;97858.78;5070804;28;20220;-68
2021/07/07 00:05:31;;;;;;;4.67;2.97;;;;;;;24.84;86.20;97868.13;5055229;28;20208;-69
2021/07/07 00:07:59;;;;;;;4.43;2.87;;;;;;;25.22;85.82;97862.34;5063135;28;20278;-68
2021/07/07 00:10:28;;;;;;;4.67;3.17;;;;;;;24.97;85.95;97868.22;5057950;28;20207;-69
2021/07/07 00:12:59;;;;;;;3.53;2.23;;;;;;;25.42;83.26;97878.44;5054429;28;20562;-69
2021/07/07 00:15:31;;;;;;;5.60;2.70;;;;;;;24.81;85.25;97879.63;5059728;28;20239;-68
2021/07/07 00:17:58;;;;;;;3.23;2.50;;;;;;;25.38;83.95;97873.88;5057158;28;20211;-69
2021/07/07 00:20:25;;;;;;;3.10;2.13;;;;;;;25.60;82.20;97861.19;5056260;28;20899;-69
2021/07/07 00:22:53;;;;;;;3.03;1.90;;;;;;;25.83;81.28;97868.41;5058783;28;20228;-69
2021/07/07 00:25:21;;;;;;;3.70;2.10;;;;;;;25.41;82.99;97876.81;5062505;28;20696;-69
2021/07/07 00:27:48;;;;;;;3.57;2.60;;;;;;;25.46;83.23;97874.00;5067940;28;20205;-69
2021/07/07 00:30:16;;;;;;;3.10;2.27;;;;;;;25.39;82.82;97880.97;5072940;28;20575;-69
2021/07/07 00:32:43;;;;;;;3.87;2.50;;;;;;;25.81;79.46;97886.22;5065699;28;20219;-69
2021/07/07 00:35:11;;;;;;;3.83;2.43;;;;;;;25.34;83.41;97879.09;5069555;28;20212;-68
2021/07/07 00:37:39;;;;;;;3.43;2.30;;;;;;;25.79;80.67;97877.53;5064508;28;20204;-69
2021/07/07 00:40:07;;;;;;;5.00;2.20;;;;;;;25.55;82.36;97872.22;5056026;28;20319;-69
2021/07/07 00:42:36;;;;;;;4.73;2.57;;;;;;;25.66;82.43;97881.84;5058279;28;20222;-69
2021/07/07 00:45:03;;;;;;;3.50;2.77;;;;;;;26.01;80.45;97881.22;5066873;28;20209;-69
2021/07/07 00:47:31;;;;;;;3.70;2.40;;;;;;;24.84;88.29;97879.06;5057807;28;20646;-69
2021/07/07 00:49:58;;;;;;;3.57;2.50;;;;;;;24.95;87.72;97875.91;5053574;28;20208;-69
2021/07/07 00:52:25;;;;;;;6.10;2.80;;;;;;;24.74;87.58;97884.66;5060262;28;20236;-69
2021/07/07 00:54:52;;;;;;;5.70;3.13;;;;;;;23.98;92.76;97873.88;5058991;28;20261;-69
2021/07/07 00:57:20;;;;;;;3.23;2.40;;;;;;;23.84;95.04;97862.00;5063407;28;20216;-72
2021/07/07 00:59:49;;;;;;;5.80;2.83;;;;;;;24.92;88.88;97865.53;5062284;28;20195;-70
2021/07/07 01:02:19;;;;;;;2.80;2.43;;;;;;;24.98;87.92;97866.28;5073235;28;20233;-68
2021/07/07 01:04:46;;;;;;;4.60;2.90;;;;;;;24.87;87.79;97859.38;5062133;28;20203;-69
2021/07/07 01:07:13;;;;;;;3.77;2.40;;;;;;;25.14;85.49;97862.22;5063180;28;20214;-68
2021/07/07 01:09:40;;;;;;;3.00;2.60;;;;;;;25.06;86.83;97858.25;5058158;28;20203;-68
2021/07/07 01:12:09;;;;;;;3.23;2.40;;;;;;;25.29;86.12;97857.34;5058396;28;20211;-68
2021/07/07 01:14:36;;;;;;;2.07;1.87;;;;;;;25.30;85.34;97858.16;5057411;28;20723;-69
2021/07/07 01:17:05;;;;;;;2.77;2.10;;;;;;;25.51;83.59;97856.69;5056516;28;20212;-68
2021/07/07 01:19:33;;;;;;;4.47;2.40;;;;;;;25.37;85.17;97867.59;5056130;28;20204;-68
2021/07/07 01:22:02;;;;;;;3.33;2.60;;;;;;;25.34;85.34;97864.66;5056130;28;20212;-69
2021/07/07 01:24:29;;;;;;;2.93;2.60;;;;;;;25.10;86.22;97872.09;5064864;28;20211;-69
2021/07/07 01:26:56;;;;;;;4.53;2.87;;;;;;;25.21;85.35;97877.13;5066448;28;20205;-68
2021/07/07 01:29:23;;;;;;;3.47;2.50;;;;;;;25.53;82.76;97870.91;5065785;28;20663;-68
2021/07/07 01:31:51;;;;;;;4.67;2.50;;;;;;;25.23;85.99;97874.88;5061916;28;20212;-68
2021/07/07 01:34:18;;;;;;;5.93;2.83;;;;;;;25.11;85.96;97860.88;5063780;28;20223;-68
2021/07/07 01:36:45;;;;;;;4.50;3.17;;;;;;;24.12;93.59;97854.91;5058053;28;20194;-71
2021/07/07 01:39:14;;;;;;;5.13;3.53;;;;;;;24.21;93.04;97836.75;5052855;28;20204;-72
2021/07/07 01:41:41;;;;;;;5.60;3.77;;;;;;;24.38;92.08;97843.34;5058026;28;20216;-71
2021/07/07 01:44:08;;;;;;;4.10;3.00;;;;;;;24.91;88.87;97844.81;5058128;28;20737;-70
2021/07/07 01:46:36;;;;;;;4.63;3.20;;;;;;;24.84;89.23;97846.28;5052344;28;20561;-70
2021/07/07 01:49:03;;;;;;;4.23;3.27;;;;;;;25.14;87.23;97854.03;5054583;28;20213;-70
2021/07/07 01:51:30;;;;;;;4.07;3.27;;;;;;;25.75;83.00;97860.88;5061488;28;20207;-68
2021/07/07 01:53:58;;;;;;;4.37;3.07;;;;;;;25.63;81.79;97865.22;5054125;28;20232;-68
2021/07/07 01:56:26;;;;;;;4.90;3.70;;;;;;;25.16;84.83;97881.84;5057739;28;20218;-69
2021/07/07 01:58:54;;;;;;;6.10;3.87;;;;;;;25.36;84.71;97884.28;5066596;28;20197;-70
2021/07/07 02:01:21;;;;;;;4.70;3.53;;;;;;;24.96;86.43;97884.88;5066660;28;20203;-68
2021/07/07 02:03:48;;;;;;;7.30;4.00;;;;;;;24.71;89.75;97882.50;5063710;28;20215;-68
2021/07/07 02:06:15;;;;;;;5.63;3.57;;;;;;;24.58;91.85;97878.59;5057164;28;20206;-71
2021/07/07 02:08:43;;;;;;;7.87;4.53;;;;;;;24.10;93.15;97873.44;5057708;28;20207;-70
2021/07/07 02:11:10;;;;;;;5.50;3.97;;;;;;;24.78;88.90;97863.88;5051550;28;20568;-70
2021/07/07 02:13:39;;;;;;;5.67;3.73;;;;;;;24.96;88.83;97865.75;5051896;28;20228;-70
2021/07/07 02:16:06;;;;;;;6.03;4.10;;;;;;;24.97;89.09;97873.66;5051609;28;20212;-70
2021/07/07 02:18:34;;;;;;;4.83;3.67;;;;;;;24.97;86.76;97883.75;5055531;28;20220;-71
2021/07/07 02:21:01;;;;;;;5.37;3.63;;;;;;;25.12;86.33;97883.53;5051459;28;20220;-69
2021/07/07 02:23:28;;;;;;;8.10;4.50;;;;;;;25.60;86.28;97871.31;5051790;28;20242;-68
2021/07/07 02:25:56;;;;;;;6.33;5.00;;;;;;;25.56;83.60;97887.50;5061167;28;20717;-67
2021/07/07 02:28:25;;;;;;;9.90;5.13;;;;;;;25.15;86.92;97883.78;5062663;28;20213;-69
2021/07/07 02:30:54;;;;;;;6.97;4.93;;;;;;;23.77;98.10;97866.94;5055676;28;20665;-71
2021/07/07 02:33:22;;;;;;;7.23;5.43;;;;;;;24.24;99.15;97869.75;5057893;28;20326;-70
2021/07/07 02:35:49;;;;;;;7.87;4.80;;;;;;;25.05;91.49;97877.66;5062816;28;20679;-69
2021/07/07 02:38:20;;;;;;;7.37;5.17;;;;;;;25.08;89.45;97885.25;5052098;28;20207;-70
2021/07/07 02:40:49;;;;;;;8.30;4.90;;;;;;;24.87;90.06;97870.28;5053788;28;20227;-70
2021/07/07 02:43:16;;;;;;;6.57;4.87;;;;;;;24.61;91.70;97874.47;5057959;28;20224;-70
2021/07/07 02:45:44;;;;;;;5.97;4.40;;;;;;;24.27;92.87;97877.31;5055857;28;20203;-69
2021/07/07 02:48:14;;;;;;;8.77;4.97;;;;;;;24.74;89.99;97881.94;5069429;28;20572;-69
2021/07/07 02:50:42;;;;;;;5.70;3.97;;;;;;;24.62;90.12;97876.09;5058435;28;20209;-69
2021/07/07 02:53:10;;;;;;;5.87;4.43;;;;;;;24.75;90.17;97886.28;5061676;28;20253;-69
2021/07/07 02:55:37;;;;;;;6.83;4.80;;;;;;;24.82;89.90;97892.19;5062279;28;20227;-69
2021/07/07 02:58:05;;;;;;;5.03;4.20;;;;;;;24.58;90.78;97889.50;5062870;28;20212;-70
2021/07/07 03:00:34;;;;;;;6.40;4.63;;;;;;;24.46;92.08;97889.09;5070730;28;20211;-69
2021/07/07 03:03:04;;;;;;;6.27;4.13;;;;;;;24.47;91.85;97895.38;5067887;28;20227;-70
2021/07/07 03:05:34;;;;;;;9.47;5.57;;;;;;;24.63;90.81;97902.28;5058141;28;20206;-69
2021/07/07 03:08:01;;;;;;;6.10;4.63;;;;;;;24.23;93.25;97903.56;5064094;28;20214;-69
2021/07/07 03:10:29;;;;;;;6.93;5.20;;;;;;;23.78;96.53;97903.22;5060634;28;20211;-69
2021/07/07 03:12:56;;;;;;;7.57;4.40;;;;;;;23.84;95.96;97893.88;5056600;28;20218;-69
2021/07/07 03:15:25;;;;;;;6.63;4.40;;;;;;;24.36;94.74;97899.31;5059266;28;20231;-69
2021/07/07 03:17:52;;;;;;;4.90;3.90;;;;;;;24.30;93.35;97881.38;5062436;28;20203;-69
2021/07/07 03:20:20;;;;;;;6.13;4.60;;;;;;;24.18;94.26;97851.78;5054488;28;20202;-69
2021/07/07 03:22:49;;;;;;;9.20;5.23;;;;;;;22.65;100.00;97826.50;5063075;28;20263;-69
2021/07/07 03:25:16;;;;;;;6.90;4.80;;;;;;;23.51;100.00;97848.44;5060791;28;20202;-69
2021/07/07 03:27:43;;;;;;;6.73;4.63;;;;;;;23.58;100.00;97904.22;5063378;28;20213;-69
2021/07/07 03:30:12;;;;;;;6.60;5.40;;;;;;;23.58;100.00;97917.84;5063082;28;20293;-69
2021/07/07 03:32:39;;;;;;;7.30;5.30;;;;;;;24.09;99.73;97904.53;5059834;28;20233;-69
2021/07/07 03:35:07;;;;;;;10.30;5.43;;;;;;;24.10;97.98;97911.63;5059311;28;20232;-70
2021/07/07 03:37:34;;;;;;;5.83;4.93;;;;;;;23.84;98.92;97926.59;5055154;28;20201;-69
2021/07/07 03:40:03;;;;;;;8.27;5.90;;;;;;;24.06;98.55;97926.97;5066142;28;20207;-70
2021/07/07 03:42:31;;;;;;;6.27;5.27;;;;;;;23.98;97.27;97930.31;5063371;28;20748;-70
2021/07/07 03:44:59;;;;;;;8.50;4.70;;;;;;;24.19;95.58;97943.44;5055385;28;20199;-70
2021/07/07 03:47:26;;;;;;;7.47;5.40;;;;;;;24.53;95.31;97933.19;5068099;28;20673;-69
2021/07/07 03:49:54;;;;;;;6.03;4.10;;;;;;;24.30;94.05;97936.75;5054866;28;20203;-69
2021/07/07 03:52:21;;;;;;;8.87;4.43;;;;;;;24.20;98.25;97916.97;5064862;28;20230;-70
2021/07/07 03:54:48;;;;;;;4.63;3.27;;;;;;;24.22;95.17;97901.13;5065836;28;20311;-70
2021/07/07 03:57:17;;;;;;;6.03;4.33;;;;;;;23.96;96.69;97894.34;5058635;28;20222;-70
2021/07/07 03:59:46;;;;;;;11.70;4.53;;;;;;;24.22;96.16;97885.56;5060251;28;20678;-71
2021/07/07 04:02:13;;;;;;;6.40;3.93;;;;;;;23.85;95.69;97904.50;5062634;28;20227;-70
2021/07/07 04:04:42;;;;;;;5.10;4.07;;;;;;;24.04;93.58;97897.25;5066350;28;20205;-70
2021/07/07 04:07:10;;;;;;;5.53;4.00;;;;;;;22.79;100.00;97890.06;5067552;28;20211;-69
2021/07/07 04:09:37;;;;;;;7.13;4.40;;;;;;;23.77;97.58;97904.31;5056368;28;20576;-70
2021/07/07 04:12:05;;;;;;;6.70;5.27;;;;;;;23.67;95.76;97910.66;5060930;28;20206;-70
2021/07/07 04:14:33;;;;;;;9.03;5.63;;;;;;;23.75;95.83;97917.41;5065389;28;20222;-70
2021/07/07 04:17:01;;;;;;;7.70;5.87;;;;;;;24.13;95.42;97920.06;5056967;28;20203;-71
2021/07/07 04:19:28;;;;;;;9.23;6.50;;;;;;;24.40;93.00;97936.66;5064869;28;20219;-69
2021/07/07 04:21:56;;;;;;;8.40;5.93;;;;;;;24.32;92.81;97929.09;5070758;28;20229;-68
2021/07/07 04:24:24;;;;;;;10.53;7.33;;;;;;;24.56;92.28;97938.09;5074025;28;21027;-68
2021/07/07 04:26:52;;;;;;;8.33;5.70;;;;;;;24.67;90.27;97938.81;5059943;28;20207;-70
2021/07/07 04:29:19;;;;;;;10.33;6.97;;;;;;;25.00;90.85;97935.06;5060247;28;20215;-69
2021/07/07 04:31:49;;;;;;;10.23;6.73;;;;;;;24.62;90.50;97938.88;5065591;28;20204;-71
2021/07/07 04:34:16;;;;;;;8.90;5.17;;;;;;;24.77;89.39;97936.75;5071573;28;20699;-71
2021/07/07 04:36:44;;;;;;;8.10;5.70;;;;;;;25.05;87.62;97933.09;5054319;28;20209;-71
2021/07/07 04:39:11;;;;;;;9.43;6.00;;;;;;;25.08;86.78;97945.34;5054233;28;20203;-68
2021/07/07 04:41:38;;;;;;;6.87;4.70;;;;;;;24.78;88.67;97943.03;5056931;28;20211;-71
2021/07/07 04:44:06;;;;;;;6.70;4.00;;;;;;;24.46;88.64;97942.84;5067007;28;20256;-74
2021/07/07 04:46:33;;;;;;;6.27;4.03;;;;;;;23.91;92.56;97938.81;5056928;28;20211;-69
2021/07/07 04:49:02;;;;;;;4.37;3.60;;;;;;;23.99;93.48;97940.09;5056290;28;20207;-74
2021/07/07 04:51:30;;;;;;;5.20;3.70;;;;;;;24.22;92.32;97958.41;5053732;28;20212;-72
2021/07/07 04:53:57;;;;;;;4.80;2.80;;;;;;;24.00;91.35;97958.91;5055652;28;20227;-72
2021/07/07 04:56:25;;;;;;;4.15;3.25;;;;;;;23.94;93.03;97951.88;5055510;28;20811;-83
2021/07/07 04:58:52;;;;;;;5.37;3.30;;;;;;;24.85;90.83;97966.13;5067391;28;20206;-73
2021/07/07 05:01:19;;;;;;;4.20;2.70;;;;;;;24.60;90.26;97968.34;5061949;28;20206;-79
2021/07/07 05:03:47;;;;;;;2.80;2.50;;;;;;;24.77;88.98;97971.44;5057441;28;20223;-74
2021/07/07 05:06:15;;;;;;;3.27;2.70;;;;;;;24.46;88.62;97972.84;5067215;28;20481;-73
2021/07/07 05:08:42;;;;;;;2.90;2.17;;;;;;;24.98;88.26;97978.25;5068759;28;20268;-72
2021/07/07 05:11:11;;;;;;;3.23;2.60;;;;;;;25.17;84.41;97979.06;5070435;28;20207;-72
2021/07/07 05:13:38;;;;;;;4.73;2.80;;;;;;;24.66;89.36;97964.47;5060358;28;20227;-71
2021/07/07 05:16:06;;;;;;;3.37;2.93;;;;;;;24.47;89.98;97974.50;5069715;28;20230;-73
2021/07/07 05:18:33;;;;;;;3.37;2.63;;;;;;;24.42;91.34;97972.63;5061811;28;20212;-71
2021/07/07 05:21:00;;;;;;;3.20;2.23;;;;;;;24.61;90.06;97976.25;5063179;28;20216;-68
2021/07/07 05:23:33;;;;;;;1.80;1.60;;;;;;;24.45;87.80;97976.69;5056148;28;20238;-70
2021/07/07 05:26:01;;;;;;;2.57;1.33;;;;;;;23.16;91.95;97982.13;5070932;28;20292;-69
2021/07/07 05:28:28;;;;;;;1.80;1.50;;;;;;;23.91;91.66;97987.09;5066417;28;20701;-67
2021/07/07 05:30:59;;;;;;;1.77;1.50;;;;;;;24.61;87.71;97992.63;5063608;28;20639;-70
2021/07/07 05:33:33;;;;;;;3.23;1.70;;;;;;;25.26;83.19;98015.56;5062191;28;20353;-72
2021/07/07 05:36:00;;;;;;;1.30;1.17;;;;;;;25.20;81.38;98020.28;5065645;28;20315;-73
2021/07/07 05:38:29;;;;;;;2.10;1.40;;;;;;;23.47;88.02;98014.34;5053067;28;20209;-71
2021/07/07 05:40:56;;;;;;;3.13;1.60;;;;;;;23.51;88.68;98003.72;5052797;28;20215;-71
2021/07/07 05:43:24;;;;;;;1.83;1.60;;;;;;;24.16;90.19;97995.81;5054793;28;20242;-71
2021/07/07 05:45:52;;;;;;;5.03;1.70;;;;;;;24.75;87.90;97998.19;5060782;28;20288;-71
2021/07/07 05:48:19;;;;;;;3.20;1.70;;;;;;;;;;5061463;28;20256;-71
2021/07/07 05:50:46;;;;;;;2.90;1.97;;;;;;;24.17;88.80;98002.91;5060918;28;20198;-70
2021/07/07 05:53:13;;;;;;;2.70;1.50;;;;;;;25.39;83.98;98023.84;5057205;28;20292;-71
2021/07/07 05:55:42;;;;;;;2.27;1.50;;;;;;;25.06;82.45;98021.28;5052137;28;20230;-71
2021/07/07 05:58:09;;;;;;;1.83;1.67;;;;;;;25.15;82.79;98019.53;5061620;28;20238;-69
2021/07/07 06:00:36;;;;;;;1.97;1.60;;;;;;;24.57;85.68;98024.31;5053319;28;20204;-71
2021/07/07 06:03:04;;;;;;;4.73;2.10;;;;;;;24.57;84.06;98015.31;5053268;28;20246;-71
2021/07/07 06:05:32;;;;;;;2.40;1.50;;;;;;;24.23;85.40;98003.66;5056849;28;20543;-72
2021/07/07 06:08:00;;;;;;;2.97;1.50;;;;;;;24.16;85.19;98003.19;5053074;28;20208;-71
2021/07/07 06:10:28;;;;;;;2.33;1.53;;;;;;;24.17;84.75;98008.34;5071151;28;20967;-73
2021/07/07 06:12:57;;;;;;;3.77;1.30;;;;;;;25.28;80.35;98029.78;5062595;28;20234;-76
2021/07/07 06:15:24;;;;;;;3.33;1.87;;;;;;;25.77;79.32;98024.66;5063095;28;20233;-70
2021/07/07 06:17:52;;;;;;;2.70;1.33;;;;;;;25.03;79.99;98011.75;5058415;28;20204;-69
2021/07/07 06:20:19;;;;;;;2.73;1.30;;;;;;;24.39;82.63;97996.94;5070897;28;20292;-71
2021/07/07 06:22:47;;;;;;;2.43;1.50;;;;;;;24.33;82.43;98000.84;5054593;28;20233;-72
2021/07/07 06:25:17;;;;;;;1.77;1.20;;;;;;;24.91;84.08;98003.19;5066297;28;20204;-78
2021/07/07 06:27:45;;;;;;;3.27;1.40;;;;;;;25.25;81.37;98003.00;5065679;28;20215;-78
2021/07/07 06:30:15;;;;;;;2.17;1.60;;;;;;;24.80;82.26;98004.44;5067488;28;20204;-71
2021/07/07 06:32:44;;;;;;;5.13;1.57;;;;;;;25.01;80.32;98021.34;5053310;28;20228;-70
2021/07/07 06:35:13;;;;;;;3.57;1.60;;;;;;;24.67;82.22;98029.69;5056366;28;20237;-71
2021/07/07 06:37:40;;;;;;;4.73;2.10;;;;;;;25.55;80.14;98022.53;5051353;28;20211;-69
2021/07/07 06:40:09;;;;;;;2.93;1.50;;;;;;;24.92;81.79;98029.38;5051837;28;20218;-68
2021/07/07 06:42:37;;;;;;;3.80;1.50;;;;;;;25.11;81.74;98046.63;5063203;28;20227;-71
2021/07/07 06:45:06;;;;;;;2.60;1.57;;;;;;;25.82;77.01;98057.38;5055438;28;20209;-70
2021/07/07 06:47:35;;;;;;;3.93;1.70;;;;;;;25.03;79.42;98047.25;5063696;28;20219;-69
2021/07/07 06:50:03;;;;;;;2.37;1.37;;;;;;;25.33;80.95;98054.28;5054639;28;20216;-69
2021/07/07 06:52:30;;;;;;;6.60;2.10;;;;;;;25.40;79.31;98058.28;5051617;28;20588;-70
2021/07/07 06:54:57;;;;;;;3.03;1.50;;;;;;;25.51;79.46;98057.03;5054350;28;20230;-70
2021/07/07 06:57:24;;;;;;;3.83;1.73;;;;;;;25.45;80.03;98060.13;5057251;28;20204;-69
2021/07/07 06:59:52;;;;;;;4.30;1.80;;;;;;;25.25;80.06;98072.16;5051314;28;20201;-70
2021/07/07 07:02:19;;;;;;;2.30;1.70;;;;;;;25.74;78.47;98071.75;5050924;28;20232;-69
2021/07/07 07:04:47;;;;;;;5.30;2.77;;;;;;;25.38;77.85;98081.56;5056635;28;20204;-71
2021/07/07 07:07:15;;;;;;;3.90;1.50;;;;;;;25.41;79.64;98084.50;5051265;28;20206;-71
2021/07/07 07:09:42;;;;;;;4.23;1.60;;;;;;;25.65;78.80;98096.16;5051684;28;20209;-70
2021/07/07 07:12:09;;;;;;;4.87;2.00;;;;;;;26.00;74.38;98103.09;5067067;28;20205;-70
2021/07/07 07:14:37;;;;;;;1.90;1.60;;;;;;;26.02;74.51;98096.22;5051611;28;20213;-70
2021/07/07 07:17:04;;;;;;;3.70;1.50;;;;;;;25.56;77.09;98100.69;5050802;28;20728;-70
2021/07/07 07:19:31;;;;;;;6.07;2.33;;;;;;;25.70;77.55;98098.03;5051688;28;20206;-69
2021/07/07 07:22:00;;;;;;;2.27;1.53;;;;;;;25.35;75.60;98090.31;5050934;28;20677;-70
2021/07/07 07:24:30;;;;;;;3.00;1.53;;;;;;;25.89;77.19;98085.97;5051181;28;20209;-70
2021/07/07 07:26:58;;;;;;;5.30;1.50;;;;;;;25.57;77.05;98085.09;5059008;28;20206;-70
2021/07/07 07:29:25;;;;;;;4.00;1.63;;;;;;;25.70;78.87;98093.38;5051752;28;20219;-70
2021/07/07 07:31:52;;;;;;;5.30;1.37;;;;;;;25.16;78.60;98086.72;5051824;28;20202;-70
2021/07/07 07:34:19;;;;;;;1.80;1.50;;;;;;;25.49;78.87;98081.09;5052510;28;20202;-70
2021/07/07 07:36:49;;;;;;;2.90;1.17;;;;;;;25.43;73.20;98087.75;5057977;28;20597;-70
2021/07/07 07:39:22;;;;;;;4.93;1.30;;;;;;;25.51;76.51;98087.09;5051760;28;20305;-70
2021/07/07 07:41:49;;;;;;;4.33;1.00;;;;;;;26.27;71.21;98098.53;5051047;28;20674;-70
2021/07/07 07:44:18;;;;;;;3.43;1.20;;;;;;;25.11;80.84;98081.31;5051075;28;20228;-70
2021/07/07 07:46:45;;;;;;;2.13;1.33;;;;;;;25.68;76.85;98092.03;5055497;28;20229;-69
2021/07/07 07:49:13;;;;;;;2.30;1.30;;;;;;;25.06;76.61;98100.47;5055290;28;20213;-70
2021/07/07 07:51:41;;;;;;;3.57;1.77;;;;;;;26.00;69.81;98109.34;5062991;28;20201;-69
2021/07/07 07:54:08;;;;;;;3.30;1.17;;;;;;;24.90;75.06;98099.03;5053745;28;20225;-69
2021/07/07 07:56:37;;;;;;;4.63;0.97;;;;;;;;;;5054207;28;20612;-70
2021/07/07 07:59:04;;;;;;;1.90;1.07;;;;;;;24.79;79.32;98097.53;5060539;28;20209;-70
2021/07/07 08:01:34;;;;;;;3.33;1.10;;;;;;;25.24;74.58;98106.00;5050992;28;20206;-69
2021/07/07 08:04:01;;;;;;;2.20;1.27;;;;;;;25.26;77.18;98095.63;5053881;28;20225;-70
2021/07/07 08:06:29;;;;;;;2.50;1.30;;;;;;;25.45;73.03;98107.41;5050591;28;20202;-69
2021/07/07 08:08:57;;;;;;;5.50;1.43;;;;;;;24.95;76.17;98113.47;5051127;28;20198;-70
2021/07/07 08:11:24;;;;;;;5.57;1.63;;;;;;;25.22;76.27;98126.50;5062533;28;20213;-70
2021/07/07 08:13:53;;;;;;;3.43;1.23;;;;;;;25.46;77.29;98125.44;5054771;28;20221;-70
2021/07/07 08:16:20;;;;;;;7.10;1.53;;;;;;;26.09;73.58;98147.81;5055636;28;20229;-70
2021/07/07 08:18:48;;;;;;;5.90;1.73;;;;;;;25.77;71.81;98147.69;5054605;28;20210;-70
2021/07/07 08:21:17;;;;;;;1.60;1.20;;;;;;;24.48;79.57;98135.19;5070362;28;20205;-69
2021/07/07 08:23:44;;;;;;;4.17;1.40;;;;;;;25.14;78.51;98143.56;5053948;28;20269;-70
2021/07/07 08:26:12;;;;;;;5.23;1.30;;;;;;;24.97;78.30;98138.56;5057876;28;20206;-69
2021/07/07 08:28:39;;;;;;;2.43;1.30;;;;;;;26.20;72.58;98135.59;5057190;28;20681;-69
2021/07/07 08:31:08;;;;;;;4.77;1.63;;;;;;;25.58;77.13;98128.53;5058668;28;20283;-70
2021/07/07 08:33:35;;;;;;;3.30;1.30;;;;;;;25.29;76.10;98125.09;5061782;28;20779;-70
2021/07/07 08:36:03;;;;;;;2.33;1.27;;;;;;;25.21;75.88;98135.81;5069113;28;20256;-69
2021/07/07 08:38:30;;;;;;;2.03;1.00;;;;;;;26.02;70.92;98139.97;5074461;28;20212;-70
2021/07/07 08:40:57;;;;;;;1.70;1.40;;;;;;;26.67;64.97;98152.63;5060421;28;20214;-69
2021/07/07 08:43:25;;;;;;;2.37;1.00;;;;;;;26.87;63.23;98152.25;5054110;28;20297;-69
2021/07/07 08:45:54;;;;;;;2.37;1.17;;;;;;;26.72;67.26;98136.09;5053933;28;20619;-69
2021/07/07 08:48:23;;;;;;;2.87;1.00;;;;;;;27.04;66.46;98149.75;5053902;28;20216;-68
2021/07/07 08:50:53;;;;;;;6.33;1.53;;;;;;;25.04;75.41;98133.53;5053969;28;20213;-69
2021/07/07 08:53:20;;;;;;;2.83;1.13;;;;;;;25.39;75.86;98124.16;5055179;28;20257;-69
2021/07/07 08:55:48;;;;;;;3.03;1.20;;;;;;;26.64;68.07;98141.44;5058763;28;20271;-69
2021/07/07 08:58:15;;;;;;;2.27;1.20;;;;;;;26.91;64.79;98152.47;5070136;28;20205;-69
2021/07/07 09:00:42;;;;;;;4.10;1.30;;;;;;;27.21;65.26;98128.03;5056639;28;20202;-68
2021/07/07 09:03:11;;;;;;;2.37;1.20;;;;;;;27.71;59.50;98140.69;5057615;28;20590;-68
2021/07/07 09:05:56;;;;;;;6.07;1.60;;;;;;;25.93;67.33;98147.22;5059496;28;20237;-69
2021/07/07 09:08:25;;;;;;;1.90;0.90;;;;;;;26.23;67.80;98152.22;5053592;28;20677;-68
2021/07/07 09:10:53;;;;;;;3.27;1.30;;;;;;;27.31;61.53;98168.16;5057530;28;20211;-70
2021/07/07 09:13:21;;;;;;;4.53;1.63;;;;;;;25.87;71.62;98148.38;5060519;28;20225;-68
2021/07/07 09:15:49;;;;;;;3.13;1.53;;;;;;;26.24;70.71;98142.09;5058507;28;20236;-69
2021/07/07 09:18:21;;;;;;;2.23;1.50;;;;;;;26.52;69.12;98149.28;5053599;28;20299;-70
2021/07/07 09:20:51;;;;;;;3.37;1.47;;;;;;;27.36;67.65;98151.63;5062831;28;20204;-72
2021/07/07 09:23:21;;;;;;;2.57;1.57;;;;;;;26.23;72.09;98154.13;5057450;28;20585;-69
2021/07/07 09:25:51;;;;;;;3.63;1.80;;;;;;;27.07;66.76;98167.50;5067852;28;20257;-68
2021/07/07 09:28:20;;;;;;;2.03;1.50;;;;;;;26.83;67.41;98166.84;5065951;28;20211;-69
2021/07/07 09:30:48;;;;;;;4.00;1.50;;;;;;;27.51;62.88;98178.72;5068722;28;20208;-74
2021/07/07 09:33:15;;;;;;;4.30;1.60;;;;;;;27.93;64.40;98176.44;5067106;28;20221;-74
2021/07/07 09:35:43;;;;;;;3.43;1.50;;;;;;;27.79;58.17;98200.38;5057727;28;20241;-77
2021/07/07 09:38:11;;;;;;;4.93;1.47;;;;;;;28.15;59.94;98178.41;5061742;28;20214;-75
2021/07/07 09:40:43;;;;;;;2.10;1.33;;;;;;;28.47;58.57;98186.50;5066323;28;20203;-75
2021/07/07 09:43:11;;;;;;;3.63;1.30;;;;;;;27.23;61.24;98191.59;5066549;28;20250;-76
2021/07/07 09:45:43;;;;;;;2.23;1.40;;;;;;;28.89;56.95;98191.47;5066507;28;20199;-75
2021/07/07 09:48:13;;;;;;;2.53;1.30;;;;;;;27.98;56.75;98189.25;5071480;28;20263;-76
2021/07/07 09:50:42;;;;;;;3.83;1.10;;;;;;;27.79;60.50;98186.66;5071144;28;20596;-76
2021/07/07 09:53:12;;;;;;;2.83;1.23;;;;;;;25.79;73.05;98172.84;5056433;28;20229;-76
2021/07/07 09:55:40;;;;;;;4.40;1.13;;;;;;;25.07;75.84;98171.22;5055591;28;20199;-75
2021/07/07 09:58:08;;;;;;;4.13;1.47;;;;;;;25.14;75.46;98173.59;5054551;28;20207;-76
2021/07/07 10:00:41;;;;;;;2.90;1.40;;;;;;;25.53;72.56;98182.47;5055611;28;20209;-75
2021/07/07 10:03:09;;;;;;;3.60;1.23;;;;;;;26.58;67.47;98176.31;5054984;28;20230;-75
2021/07/07 10:05:40;;;;;;;3.47;1.37;;;;;;;27.14;65.80;98185.16;5053491;28;20209;-75
2021/07/07 10:08:09;;;;;;;4.57;1.50;;;;;;;26.31;70.05;98175.38;5053229;28;20214;-73
2021/07/07 10:10:39;;;;;;;4.20;1.30;;;;;;;25.56;71.03;98169.03;5067629;28;20201;-73
2021/07/07 10:13:09;;;;;;;3.27;1.40;;;;;;;25.21;73.97;98169.44;5063437;28;20728;-73
2021/07/07 10:15:37;;;;;;;5.70;1.33;;;;;;;25.62;72.32;98167.03;5052567;28;20197;-76
2021/07/07 10:18:07;;;;;;;1.53;1.00;;;;;;;27.07;65.04;98181.19;5052101;28;20305;-74
2021/07/07 10:20:34;;;;;;;2.10;1.10;;;;;;;28.48;59.83;98188.91;5052038;28;20198;-76
2021/07/07 10:23:04;;;;;;;2.60;1.30;;;;;;;26.51;66.74;98188.72;5065441;28;20233;-77
2021/07/07 10:25:32;;;;;;;2.03;1.10;;;;;;;26.13;67.25;98179.75;5055009;28;20214;-73
2021/07/07 10:28:03;;;;;;;3.57;1.37;;;;;;;26.25;67.73;98182.03;5064694;28;20206;-76
2021/07/07 10:30:49;;;;;;;3.00;1.30;;;;;;;27.21;63.48;98188.34;5067269;28;20203;-76
2021/07/07 10:33:17;;;;;;;6.13;1.63;;;;;;;27.59;62.14;98184.28;5053647;28;20649;-76
2021/07/07 10:35:44;;;;;;;1.87;1.20;;;;;;;28.31;59.87;98177.75;5061320;28;20299;-76
2021/07/07 10:38:13;;;;;;;2.00;1.10;;;;;;;26.90;66.08;98175.50;5055831;28;20212;-73
2021/07/07 10:40:47;;;;;;;1.93;1.33;;;;;;;27.80;63.50;98187.44;5052604;28;20207;-73
2021/07/07 10:43:26;;;;;;;2.43;1.60;;;;;;;27.22;65.89;98187.22;5060347;28;20304;-73
2021/07/07 10:45:53;;;;;;;2.80;1.40;;;;;;;28.43;59.66;98197.25;5051827;28;20585;-73
2021/07/07 10:48:30;;;;;;;2.97;1.23;;;;;;;28.40;59.66;98208.06;5057164;28;20210;-75
2021/07/07 10:50:58;;;;;;;3.83;1.50;;;;;;;28.12;61.36;98201.81;5061376;28;20264;-72
2021/07/07 10:53:29;;;;;;;8.93;1.80;;;;;;;26.59;67.98;98185.31;5061573;28;20230;-72
2021/07/07 10:55:57;;;;;;;2.53;1.30;;;;;;;27.58;64.86;98184.59;5062393;28;20211;-72
2021/07/07 10:58:30;;;;;;;2.60;1.30;;;;;;;28.53;59.89;98197.00;5061862;28;20230;-72
2021/07/07 11:00:58;;;;;;;1.40;1.17;;;;;;;29.59;57.81;98195.88;5051630;28;20199;-73
2021/07/07 11:03:35;;;;;;;3.87;1.10;;;;;;;29.98;54.71;98206.00;5069533;28;20227;-72
2021/07/07 11:06:27;;;;;;;3.20;1.33;;;;;;;29.95;51.83;98207.47;5070989;28;20290;-72
2021/07/07 11:09:05;;;;;;;2.87;1.30;;;;;;;28.38;60.95;98186.41;5057300;28;20193;-72
2021/07/07 11:11:32;;;;;;;2.05;1.00;;;;;;;28.89;58.23;98186.75;5067104;28;20291;-72
2021/07/07 11:14:11;;;;;;;1.98;1.00;;;;;;;30.41;52.14;98195.91;5059598;28;20567;-72
2021/07/07 11:16:46;;;;;;;2.30;1.15;;;;;;;30.86;48.51;98200.72;5051192;28;20281;-73
2021/07/07 11:19:36;;;;;;;4.88;1.20;;;;;;;29.63;52.70;98198.78;5051218;28;20646;-73
2021/07/07 11:22:04;;;;;;;1.67;1.20;;;;;;;29.65;52.68;98202.06;5051136;28;20198;-72
2021/07/07 11:24:31;;;;;;;2.30;1.00;;;;;;;28.79;57.68;98186.22;5070269;28;20190;-73
2021/07/07 11:26:58;;;;;;;1.67;1.08;;;;;;;29.44;54.61;98185.28;5062494;28;20202;-72
2021/07/07 11:29:27;;;;;;;2.17;1.33;;;;;;;28.61;58.86;98176.22;5061210;28;20588;-72
2021/07/07 11:31:54;;;;;;;2.17;1.20;;;;;;;30.14;53.93;98191.50;5062744;28;20197;-73
2021/07/07 11:34:21;;;;;;;1.27;0.90;;;;;;;30.35;48.59;98208.22;5071140;28;20308;-76
2021/07/07 11:36:49;;;;;;;0.73;0.65;;;;;;;31.51;44.75;98217.78;5058597;28;20228;-72
2021/07/07 11:39:22;;;;;;;1.27;0.90;;;;;;;31.99;44.24;98209.94;5058767;28;20359;-73